Time;durP1;ratioP1;P1;durP2;ratioP2;P2;SDS_P1;SDS_P2;PMS_P1;PMS_P2;Temp;Humidity;BMP_temperature;BMP_pressure;BME280_temperature;BME280_humidity;BME280_pressure;Samples;Min_cycle;Max_cycle;Signal;HPM_P1;HPM_P2
2022/07/22 00:01:56;;;;;;;21.17;19.88;;;;;;;-141.02;100.00;55844.97;5136480;27;20192;-84
2022/07/22 00:04:23;;;;;;;20.30;19.10;;;;;;;-141.02;100.00;55844.97;5135938;27;20653;-84
2022/07/22 00:06:50;;;;;;;21.17;19.88;;;;;;;-141.02;100.00;55844.97;5136382;27;20219;-85
2022/07/22 00:09:19;;;;;;;20.88;19.67;;;;;;;-141.02;100.00;55844.97;5136090;27;20192;-85
2022/07/22 00:11:46;;;;;;;20.55;19.35;;;;;;;-141.02;100.00;55844.97;5135746;27;20239;-85
2022/07/22 00:14:13;;;;;;;20.98;19.70;;;;;;;-141.02;100.00;55844.97;5135958;27;20276;-85
2022/07/22 00:16:40;;;;;;;19.80;18.60;;;;;;;-141.02;100.00;55844.97;5135638;27;20207;-85
2022/07/22 00:19:07;;;;;;;20.30;19.10;;;;;;;-141.02;100.00;55844.97;5135463;27;20697;-82
2022/07/22 00:21:34;;;;;;;20.30;19.10;;;;;;;-141.02;100.00;55844.97;5135807;27;20271;-84
2022/07/22 00:24:01;;;;;;;20.30;19.10;;;;;;;-141.02;100.00;55844.97;5135572;27;20254;-83
2022/07/22 00:26:30;;;;;;;20.20;19.00;;;;;;;-141.02;100.00;55844.97;5135716;27;20275;-84
2022/07/22 00:28:57;;;;;;;20.25;19.05;;;;;;;-141.02;100.00;55844.97;5135326;27;20197;-82
2022/07/22 00:31:24;;;;;;;20.27;19.08;;;;;;;-141.02;100.00;55844.97;5135434;27;20218;-83
2022/07/22 00:33:51;;;;;;;19.80;18.70;;;;;;;-141.02;100.00;55844.97;5135862;27;20280;-84
2022/07/22 00:36:18;;;;;;;19.20;18.10;;;;;;;-141.02;100.00;55844.97;5135571;27;20275;-84
2022/07/22 00:38:45;;;;;;;19.52;18.42;;;;;;;-141.02;100.00;55844.97;5135483;27;20199;-83
2022/07/22 00:41:12;;;;;;;19.52;18.42;;;;;;;-141.02;100.00;55844.97;5134982;27;20319;-83
2022/07/22 00:43:55;;;;;;;19.33;18.23;;;;;;;-141.02;100.00;55844.97;5135039;27;20713;-85
2022/07/22 00:46:23;;;;;;;19.05;17.95;;;;;;;-141.02;100.00;55844.97;5135110;27;20541;-83
2022/07/22 00:48:50;;;;;;;19.20;18.10;;;;;;;-141.02;100.00;55844.97;5134998;27;20232;-84
2022/07/22 00:51:18;;;;;;;19.00;17.90;;;;;;;-141.02;100.00;55844.97;5135254;27;20203;-85
2022/07/22 00:53:46;;;;;;;18.98;17.88;;;;;;;-141.02;100.00;55844.97;5135011;27;20283;-85
2022/07/22 00:56:13;;;;;;;19.10;18.00;;;;;;;-141.02;100.00;55844.97;5134810;27;20200;-85
2022/07/22 00:58:40;;;;;;;19.13;18.02;;;;;;;-141.02;100.00;55844.97;5134861;27;20243;-85
2022/07/22 01:01:09;;;;;;;19.65;18.50;;;;;;;-141.02;100.00;55844.97;5135005;27;20232;-83
2022/07/22 01:03:36;;;;;;;19.60;18.50;;;;;;;-141.02;100.00;55844.97;5134630;27;20693;-85
2022/07/22 01:06:04;;;;;;;19.48;18.38;;;;;;;-141.02;100.00;55844.97;5134830;27;20188;-84
2022/07/22 01:08:31;;;;;;;19.40;18.30;;;;;;;-141.02;100.00;55844.97;5134955;27;20249;-84
2022/07/22 01:11:07;;;;;;;19.30;18.20;;;;;;;-141.02;100.00;55844.97;5134542;27;20192;-84
2022/07/22 01:13:35;;;;;;;19.10;18.00;;;;;;;-141.02;100.00;55844.97;5134919;27;20196;-84
2022/07/22 01:16:02;;;;;;;19.27;18.17;;;;;;;-141.02;100.00;55844.97;5134460;27;20196;-83
2022/07/22 01:18:30;;;;;;;19.08;17.98;;;;;;;-141.02;100.00;55844.97;5134335;27;20658;-83
2022/07/22 01:20:59;;;;;;;19.13;18.02;;;;;;;-141.02;100.00;55844.97;5134238;27;20231;-85
2022/07/22 01:23:26;;;;;;;20.70;19.60;;;;;;;-141.02;100.00;55844.97;5134347;27;20277;-83
2022/07/22 01:25:53;;;;;;;19.02;18.00;;;;;;;-141.02;100.00;55844.97;5134586;27;20283;-83
2022/07/22 01:28:21;;;;;;;19.20;18.10;;;;;;;-141.02;100.00;55844.97;5134181;27;20188;-83
2022/07/22 01:30:49;;;;;;;20.20;19.20;;;;;;;-141.02;100.00;55844.97;5134146;27;20199;-82
2022/07/22 01:33:16;;;;;;;20.15;19.05;;;;;;;-141.02;100.00;55844.97;5134058;27;20291;-84
2022/07/22 01:35:44;;;;;;;21.30;20.20;;;;;;;-141.02;100.00;55844.97;5134029;27;20192;-84
2022/07/22 01:38:12;;;;;;;20.38;19.27;;;;;;;-141.02;100.00;55844.97;5134257;27;20272;-83
2022/07/22 01:40:39;;;;;;;18.23;17.23;;;;;;;-141.02;100.00;55844.97;5133761;27;20249;-83
2022/07/22 01:43:07;;;;;;;18.95;17.95;;;;;;;-141.02;100.00;55844.97;5134187;27;20645;-82
2022/07/22 01:45:34;;;;;;;19.85;18.75;;;;;;;-141.02;100.00;55844.97;5134127;27;20220;-82
2022/07/22 01:48:02;;;;;;;19.35;18.35;;;;;;;-141.02;100.00;55844.97;5133925;27;20197;-81
2022/07/22 01:50:29;;;;;;;20.05;18.95;;;;;;;-141.02;100.00;55844.97;5133685;27;20674;-83
2022/07/22 01:52:56;;;;;;;19.60;18.50;;;;;;;-141.02;100.00;55844.97;5134326;27;20229;-85
2022/07/22 01:55:25;;;;;;;19.17;18.17;;;;;;;-141.02;100.00;55844.97;5133808;27;20223;-84
2022/07/22 01:57:52;;;;;;;19.60;18.50;;;;;;;-141.02;100.00;55844.97;5134160;27;20188;-86
2022/07/22 02:00:19;;;;;;;18.23;17.23;;;;;;;-141.02;100.00;55844.97;5133863;27;20296;-82
2022/07/22 02:02:46;;;;;;;19.40;18.30;;;;;;;-141.02;100.00;55844.97;5133558;27;20245;-84
2022/07/22 02:05:14;;;;;;;19.10;18.00;;;;;;;-141.02;100.00;55844.97;5133921;27;20203;-82
2022/07/22 02:07:41;;;;;;;20.30;19.15;;;;;;;-141.02;100.00;55844.97;5133849;27;20295;-84
2022/07/22 02:10:09;;;;;;;18.45;17.45;;;;;;;-141.02;100.00;55844.97;5134071;27;20578;-84
2022/07/22 02:12:38;;;;;;;18.58;17.58;;;;;;;-141.02;100.00;55844.97;5133766;27;20193;-84
2022/07/22 02:15:06;;;;;;;20.27;19.17;;;;;;;-141.02;100.00;55844.97;5133490;27;20265;-83
2022/07/22 02:17:33;;;;;;;18.27;17.27;;;;;;;-141.02;100.00;55844.97;5132896;27;20232;-83
2022/07/22 02:20:01;;;;;;;18.40;17.40;;;;;;;-141.02;100.00;55844.97;5133526;27;20219;-85
2022/07/22 02:22:28;;;;;;;17.80;16.80;;;;;;;-141.02;100.00;55844.97;5133322;27;20630;-83
2022/07/22 02:24:55;;;;;;;19.10;18.10;;;;;;;-141.02;100.00;55844.97;5134053;27;20200;-83
2022/07/22 02:27:22;;;;;;;17.65;16.75;;;;;;;-141.02;100.00;55844.97;5133547;27;20200;-84
2022/07/22 02:29:50;;;;;;;17.67;16.77;;;;;;;-141.02;100.00;55844.97;5133133;27;20279;-83
2022/07/22 02:32:17;;;;;;;18.00;17.10;;;;;;;-141.02;100.00;55844.97;5133058;27;20243;-83
2022/07/22 02:34:44;;;;;;;18.67;17.70;;;;;;;-141.02;100.00;55844.97;5133461;27;20232;-83
2022/07/22 02:37:11;;;;;;;17.83;16.92;;;;;;;-141.02;100.00;55844.97;5133398;27;20276;-81
2022/07/22 02:39:38;;;;;;;17.45;16.55;;;;;;;-141.02;100.00;55844.97;5133184;28;20296;-82
2022/07/22 02:42:06;;;;;;;17.48;16.58;;;;;;;-141.02;100.00;55844.97;5133006;27;20224;-84
2022/07/22 02:44:33;;;;;;;17.20;16.40;;;;;;;-141.02;100.00;55844.97;5133314;27;20290;-83
2022/07/22 02:47:01;;;;;;;17.95;17.05;;;;;;;-141.02;100.00;55844.97;5132951;28;20666;-81
2022/07/22 02:49:28;;;;;;;17.08;16.27;;;;;;;-141.02;100.00;55844.97;5132944;28;20196;-82
2022/07/22 02:51:55;;;;;;;16.83;16.02;;;;;;;-141.02;100.00;55844.97;5133234;27;20801;-82
2022/07/22 02:54:22;;;;;;;17.10;16.30;;;;;;;-141.02;100.00;55844.97;5132901;28;20661;-83
2022/07/22 02:56:50;;;;;;;16.63;15.93;;;;;;;-141.02;100.00;55844.97;5132850;27;20196;-83
2022/07/22 02:59:17;;;;;;;17.23;16.33;;;;;;;-141.02;100.00;55844.97;5132834;28;20275;-82
2022/07/22 03:01:43;;;;;;;17.40;16.50;;;;;;;-141.02;100.00;55844.97;5132716;27;20773;-82
2022/07/22 03:04:12;;;;;;;17.48;16.58;;;;;;;-141.02;100.00;55844.97;5133850;28;20203;-83
2022/07/22 03:06:39;;;;;;;16.73;15.93;;;;;;;-141.02;100.00;55844.97;5132772;27;20641;-82
2022/07/22 03:09:06;;;;;;;16.70;15.90;;;;;;;-141.02;100.00;55844.97;5133068;27;20631;-83
2022/07/22 03:11:33;;;;;;;16.48;15.68;;;;;;;-141.02;100.00;55844.97;5133884;28;20290;-82
2022/07/22 03:14:00;;;;;;;16.65;15.85;;;;;;;-141.02;100.00;55844.97;5132702;27;20218;-84
2022/07/22 03:16:27;;;;;;;16.48;15.68;;;;;;;-141.02;100.00;55844.97;5132742;28;20637;-83
2022/07/22 03:18:54;;;;;;;17.15;16.27;;;;;;;-141.02;100.00;55844.97;5132927;28;20193;-83
2022/07/22 03:21:22;;;;;;;16.80;16.00;;;;;;;-141.02;100.00;55844.97;5132882;28;20220;-83
2022/07/22 03:23:53;;;;;;;16.48;15.68;;;;;;;-141.02;100.00;55844.97;5132579;28;20662;-84
2022/07/22 03:26:20;;;;;;;16.80;16.00;;;;;;;-141.02;100.00;55844.97;5132909;28;20185;-84
2022/07/22 03:28:47;;;;;;;16.90;16.10;;;;;;;-141.02;100.00;55844.97;5133331;27;20188;-82
2022/07/22 03:31:16;;;;;;;16.63;15.82;;;;;;;-141.02;100.00;55844.97;5137023;27;20192;-83
2022/07/22 03:33:43;;;;;;;16.55;15.75;;;;;;;-141.02;100.00;55844.97;5135357;27;20203;-83
2022/07/22 03:36:10;;;;;;;16.88;16.08;;;;;;;-141.02;100.00;55844.97;5136689;27;20617;-84
2022/07/22 03:38:39;;;;;;;16.70;15.90;;;;;;;-141.02;100.00;55844.97;5136389;27;20224;-83
2022/07/22 03:41:06;;;;;;;16.73;15.93;;;;;;;-141.02;100.00;55844.97;5136165;27;20232;-84
2022/07/22 03:43:33;;;;;;;16.80;16.00;;;;;;;-141.02;100.00;55844.97;5136487;27;20189;-83
2022/07/22 03:46:00;;;;;;;16.17;15.38;;;;;;;-141.02;100.00;55844.97;5136166;27;20662;-82
2022/07/22 03:48:27;;;;;;;16.58;15.77;;;;;;;-141.02;100.00;55844.97;5136180;27;20647;-84
2022/07/22 03:50:54;;;;;;;16.90;16.05;;;;;;;-141.02;100.00;55844.97;5136776;27;20245;-82
2022/07/22 03:53:21;;;;;;;17.02;16.23;;;;;;;-141.02;100.00;55844.97;5136919;27;20594;-82
2022/07/22 03:55:50;;;;;;;17.63;16.73;;;;;;;-141.02;100.00;55844.97;5136093;27;20204;-84
2022/07/22 03:58:18;;;;;;;18.05;17.05;;;;;;;-141.02;100.00;55844.97;5136013;27;20189;-83
2022/07/22 04:00:45;;;;;;;17.73;16.75;;;;;;;-141.02;100.00;55844.97;5136174;27;20220;-83
2022/07/22 04:03:12;;;;;;;18.15;17.15;;;;;;;-141.02;100.00;55844.97;5136219;27;20196;-84
2022/07/22 04:05:39;;;;;;;18.15;17.15;;;;;;;-141.02;100.00;55844.97;5136099;27;20224;-84
2022/07/22 04:08:06;;;;;;;18.33;17.27;;;;;;;-141.02;100.00;55844.97;5135807;27;20614;-84
2022/07/22 04:10:33;;;;;;;18.40;17.30;;;;;;;-141.02;100.00;55844.97;5136124;27;20201;-83
2022/07/22 04:13:02;;;;;;;17.88;16.88;;;;;;;-141.02;100.00;55844.97;5136043;27;20196;-82
2022/07/22 04:15:29;;;;;;;18.10;17.10;;;;;;;-141.02;100.00;55844.97;5135617;27;20193;-83
2022/07/22 04:17:56;;;;;;;18.35;17.35;;;;;;;-141.02;100.00;55844.97;5135960;27;20196;-84
2022/07/22 04:20:23;;;;;;;18.27;17.23;;;;;;;-141.02;100.00;55844.97;5135516;27;20721;-83
2022/07/22 04:22:50;;;;;;;18.50;17.40;;;;;;;-141.02;100.00;55844.97;5135860;27;20225;-83
2022/07/22 04:25:17;;;;;;;18.67;17.48;;;;;;;-141.02;100.00;55844.97;5135451;27;20693;-83
2022/07/22 04:27:44;;;;;;;19.17;18.08;;;;;;;-141.02;100.00;55844.97;5135581;27;20223;-82
2022/07/22 04:30:13;;;;;;;19.15;17.95;;;;;;;-141.02;100.00;55844.97;5135659;27;20272;-83
2022/07/22 04:32:40;;;;;;;20.35;19.15;;;;;;;-141.02;100.00;55844.97;5135657;27;20269;-84
2022/07/22 04:35:08;;;;;;;19.30;18.10;;;;;;;-141.02;100.00;55844.97;5135616;27;20192;-82
2022/07/22 04:37:35;;;;;;;19.88;18.67;;;;;;;-141.02;100.00;55844.97;5135205;27;20726;-83
2022/07/22 04:40:02;;;;;;;19.55;18.35;;;;;;;-141.02;100.00;55844.97;5134729;27;20227;-84
2022/07/22 04:42:29;;;;;;;19.38;18.17;;;;;;;-141.02;100.00;55844.97;5134991;27;20281;-84
2022/07/22 04:44:56;;;;;;;19.70;18.50;;;;;;;-141.02;100.00;55844.97;5135379;27;20192;-84
2022/07/22 04:47:24;;;;;;;19.95;18.75;;;;;;;-141.02;100.00;55844.97;5135002;27;20192;-84
2022/07/22 04:49:52;;;;;;;20.33;19.02;;;;;;;-141.02;100.00;55844.97;5135035;27;20257;-85
2022/07/22 04:52:19;;;;;;;20.30;19.10;;;;;;;-141.02;100.00;55844.97;5134850;27;20194;-85
2022/07/22 04:54:46;;;;;;;20.85;19.55;;;;;;;-141.02;100.00;55844.97;5135247;27;20299;-85
2022/07/22 04:57:13;;;;;;;21.13;19.83;;;;;;;-141.02;100.00;55844.97;5134819;27;20221;-85
2022/07/22 04:59:40;;;;;;;20.67;19.38;;;;;;;-141.02;100.00;55844.97;5134732;27;20235;-85
2022/07/22 05:02:07;;;;;;;21.33;19.92;;;;;;;-141.02;100.00;55844.97;5135021;27;20246;-84
2022/07/22 05:04:36;;;;;;;21.38;19.98;;;;;;;-141.02;100.00;55844.97;5134639;27;20650;-85
2022/07/22 05:07:03;;;;;;;22.20;20.70;;;;;;;-141.02;100.00;55844.97;5134622;27;20284;-87
2022/07/22 05:09:30;;;;;;;22.60;21.10;;;;;;;-141.02;100.00;55844.97;5134616;27;20196;-85
2022/07/22 05:11:57;;;;;;;21.77;20.35;;;;;;;-141.02;100.00;55844.97;5134570;27;20197;-87
2022/07/22 05:14:25;;;;;;;21.58;20.17;;;;;;;-141.02;100.00;55844.97;5135096;27;20231;-86
2022/07/22 05:16:52;;;;;;;21.15;19.75;;;;;;;-141.02;100.00;55844.97;5134459;27;20189;-86
2022/07/22 05:19:19;;;;;;;21.30;19.90;;;;;;;-141.02;100.00;55844.97;5134373;27;20692;-86
2022/07/22 05:21:47;;;;;;;21.40;20.00;;;;;;;-141.02;100.00;55844.97;5134287;27;20316;-86
2022/07/22 05:24:15;;;;;;;21.42;20.02;;;;;;;-141.02;100.00;55844.97;5134276;27;20232;-87
2022/07/22 05:26:42;;;;;;;21.23;19.83;;;;;;;-141.02;100.00;55844.97;5134273;27;20249;-87
2022/07/22 05:29:09;;;;;;;21.33;19.92;;;;;;;-141.02;100.00;55844.97;5134145;27;20631;-85
2022/07/22 05:31:36;;;;;;;21.65;20.25;;;;;;;-141.02;100.00;55844.97;5134156;27;20644;-85
2022/07/22 05:34:03;;;;;;;20.67;19.27;;;;;;;-141.02;100.00;55844.97;5134412;27;20203;-86
2022/07/22 05:36:30;;;;;;;20.40;19.10;;;;;;;-141.02;100.00;55844.97;5134700;27;20196;-87
2022/07/22 05:38:59;;;;;;;20.23;18.83;;;;;;;-141.02;100.00;55844.97;5133858;27;20197;-86
2022/07/22 05:41:26;;;;;;;20.38;19.08;;;;;;;-141.02;100.00;55844.97;5133990;27;20589;-85
2022/07/22 05:43:53;;;;;;;21.38;19.98;;;;;;;-141.02;100.00;55844.97;5134731;27;20203;-86
2022/07/22 05:46:20;;;;;;;20.98;19.58;;;;;;;-141.02;100.00;55844.97;5134034;27;20200;-85
2022/07/22 05:48:47;;;;;;;20.80;19.40;;;;;;;-141.02;100.00;55844.97;5133802;27;20283;-86
2022/07/22 05:51:15;;;;;;;21.15;19.85;;;;;;;-141.02;100.00;55844.97;5134861;27;20200;-87
2022/07/22 05:53:43;;;;;;;21.20;19.80;;;;;;;-141.02;100.00;55844.97;5133924;27;20285;-87
2022/07/22 05:56:12;;;;;;;20.90;19.55;;;;;;;-141.02;100.00;55844.97;5133797;27;20228;-85
2022/07/22 05:58:39;;;;;;;21.20;19.90;;;;;;;-141.02;100.00;55844.97;5134038;27;20196;-86
2022/07/22 06:01:06;;;;;;;21.05;19.65;;;;;;;-141.02;100.00;55844.97;5133886;27;20315;-85
2022/07/22 06:03:33;;;;;;;20.15;18.75;;;;;;;-141.02;100.00;55844.97;5133599;27;20201;-85
2022/07/22 06:06:02;;;;;;;20.55;19.15;;;;;;;-141.02;100.00;55844.97;5133489;27;20188;-87
2022/07/22 06:08:29;;;;;;;20.58;19.17;;;;;;;-141.02;100.00;55844.97;5133474;27;20205;-85
2022/07/22 06:10:57;;;;;;;20.75;19.35;;;;;;;-141.02;100.00;55844.97;5134413;27;20279;-86
2022/07/22 06:13:26;;;;;;;20.30;19.00;;;;;;;-141.02;100.00;55844.97;5133506;27;20281;-86
2022/07/22 06:15:53;;;;;;;20.17;18.88;;;;;;;-141.02;100.00;55844.97;5133387;27;20224;-86
2022/07/22 06:18:20;;;;;;;19.90;18.60;;;;;;;-141.02;100.00;55844.97;5133319;27;20192;-86
2022/07/22 06:20:47;;;;;;;20.65;19.25;;;;;;;-141.02;100.00;55844.97;5133451;27;20662;-84
2022/07/22 06:23:14;;;;;;;20.52;19.13;;;;;;;-141.02;100.00;55844.97;5133741;27;20223;-86
2022/07/22 06:25:42;;;;;;;20.52;19.23;;;;;;;-141.02;100.00;55844.97;5133214;27;20279;-83
2022/07/22 06:28:09;;;;;;;20.08;18.77;;;;;;;-141.02;100.00;55844.97;5133107;27;20204;-85
2022/07/22 06:30:38;;;;;;;20.40;19.00;;;;;;;-141.02;100.00;55844.97;5133477;27;20283;-85
2022/07/22 06:33:06;;;;;;;20.95;19.55;;;;;;;-141.02;100.00;55844.97;5133231;27;20193;-86
2022/07/22 06:35:33;;;;;;;20.40;19.10;;;;;;;-141.02;100.00;55844.97;5133965;27;20645;-85
2022/07/22 06:38:00;;;;;;;20.35;19.05;;;;;;;-141.02;100.00;55844.97;5133470;27;20583;-86
2022/07/22 06:40:27;;;;;;;20.60;19.30;;;;;;;-141.02;100.00;55844.97;5133867;27;20232;-86
2022/07/22 06:42:54;;;;;;;20.63;19.33;;;;;;;-141.02;100.00;55844.97;5133967;27;20693;-86
2022/07/22 06:45:21;;;;;;;20.50;19.20;;;;;;;-141.02;100.00;55844.97;5133242;27;20248;-83
2022/07/22 06:47:49;;;;;;;20.77;19.48;;;;;;;-141.02;100.00;55844.97;5133755;28;20197;-87
2022/07/22 06:50:16;;;;;;;20.27;18.98;;;;;;;-141.02;100.00;55844.97;5133431;28;20189;-85
2022/07/22 06:52:43;;;;;;;20.50;19.20;;;;;;;-141.02;100.00;55844.97;5133041;27;20275;-82
2022/07/22 06:55:11;;;;;;;20.70;19.40;;;;;;;-141.02;100.00;55844.97;5133906;28;20279;-86
2022/07/22 06:57:38;;;;;;;20.50;19.20;;;;;;;-141.02;100.00;55844.97;5133480;28;20192;-84
2022/07/22 07:00:08;;;;;;;20.10;18.90;;;;;;;-141.02;100.00;55844.97;5133329;28;20193;-85
2022/07/22 07:02:35;;;;;;;20.00;18.80;;;;;;;-141.02;100.00;55844.97;5133773;27;20277;-82
2022/07/22 07:05:04;;;;;;;20.10;18.85;;;;;;;-141.02;100.00;55844.97;5136979;27;20223;-85
2022/07/22 07:07:31;;;;;;;20.73;19.42;;;;;;;-141.02;100.00;55844.97;5137589;27;20206;-85
2022/07/22 07:09:58;;;;;;;20.42;19.13;;;;;;;-141.02;100.00;55844.97;5137384;27;20193;-83
2022/07/22 07:12:25;;;;;;;21.20;19.90;;;;;;;-141.02;100.00;55844.97;5137602;27;20196;-85
2022/07/22 07:14:52;;;;;;;21.10;19.80;;;;;;;-141.02;100.00;55844.97;5137190;27;20216;-84
2022/07/22 07:17:19;;;;;;;20.27;18.98;;;;;;;-141.02;100.00;55844.97;5137718;27;20199;-83
2022/07/22 07:19:46;;;;;;;20.08;18.77;;;;;;;-141.02;100.00;55844.97;5137147;27;20268;-84
2022/07/22 07:22:15;;;;;;;20.25;18.95;;;;;;;-141.02;100.00;55844.97;5136878;27;20721;-85
2022/07/22 07:24:43;;;;;;;20.02;18.73;;;;;;;-141.02;100.00;55844.97;5136682;27;20658;-85
2022/07/22 07:27:10;;;;;;;20.45;19.15;;;;;;;-141.02;100.00;55844.97;5137243;27;20231;-84
2022/07/22 07:29:37;;;;;;;20.70;19.40;;;;;;;-141.02;100.00;55844.97;5137338;27;20650;-85
2022/07/22 07:32:05;;;;;;;20.85;19.55;;;;;;;-141.02;100.00;55844.97;5136874;27;20231;-85
2022/07/22 07:34:32;;;;;;;21.05;19.65;;;;;;;-141.02;100.00;55844.97;5136858;27;20572;-84
2022/07/22 07:36:59;;;;;;;20.42;19.10;;;;;;;-141.02;100.00;55844.97;5137179;27;20196;-85
2022/07/22 07:39:27;;;;;;;20.75;19.38;;;;;;;-141.02;100.00;55844.97;5136320;27;20236;-84
2022/07/22 07:41:54;;;;;;;20.63;19.33;;;;;;;-141.02;100.00;55844.97;5136810;27;20248;-84
2022/07/22 07:44:21;;;;;;;21.30;19.92;;;;;;;-141.02;100.00;55844.97;5136541;27;20608;-83
2022/07/22 07:46:48;;;;;;;20.48;19.17;;;;;;;-141.02;100.00;55844.97;5137647;27;20250;-83
2022/07/22 07:49:16;;;;;;;21.00;19.60;;;;;;;-141.02;100.00;55844.97;5136726;27;20275;-86
2022/07/22 07:51:43;;;;;;;20.50;19.20;;;;;;;-141.02;100.00;55844.97;5137035;27;20188;-85
2022/07/22 07:54:10;;;;;;;21.35;19.95;;;;;;;-141.02;100.00;55844.97;5136334;27;20200;-84
2022/07/22 07:56:38;;;;;;;19.95;18.75;;;;;;;-141.02;100.00;55844.97;5136765;27;20195;-84
2022/07/22 07:59:05;;;;;;;20.60;19.35;;;;;;;-141.02;100.00;55844.97;5136308;27;20200;-85
2022/07/22 08:01:32;;;;;;;21.23;19.92;;;;;;;-141.02;100.00;55844.97;5136234;27;20195;-83
2022/07/22 08:04:00;;;;;;;21.13;19.83;;;;;;;-141.02;100.00;55844.97;5136422;27;20631;-85
2022/07/22 08:06:27;;;;;;;20.65;19.35;;;;;;;-141.02;100.00;55844.97;5135040;27;20197;-85
2022/07/22 08:08:54;;;;;;;20.73;19.42;;;;;;;-141.02;100.00;55844.97;5136547;27;20199;-83
2022/07/22 08:11:21;;;;;;;20.45;19.15;;;;;;;-141.02;100.00;55844.97;5136588;27;20249;-85
2022/07/22 08:13:49;;;;;;;20.77;19.48;;;;;;;-141.02;100.00;55844.97;5136684;27;20189;-85
2022/07/22 08:16:17;;;;;;;20.58;19.27;;;;;;;-141.02;100.00;55844.97;5135647;27;20670;-85
2022/07/22 08:18:44;;;;;;;20.88;19.58;;;;;;;-141.02;100.00;55844.97;5136641;27;20226;-84
2022/07/22 08:21:11;;;;;;;20.95;19.63;;;;;;;-141.02;100.00;55844.97;5137056;27;20197;-86
2022/07/22 08:23:38;;;;;;;21.42;19.92;;;;;;;-141.02;100.00;55844.97;5136449;27;20273;-84
2022/07/22 08:26:05;;;;;;;20.35;19.05;;;;;;;-141.02;100.00;55844.97;5136230;27;20734;-85
2022/07/22 08:28:32;;;;;;;20.00;18.70;;;;;;;-141.02;100.00;55844.97;5135892;27;20192;-83
2022/07/22 08:31:01;;;;;;;21.10;19.70;;;;;;;-141.02;100.00;55844.97;5135656;27;20249;-87
2022/07/22 08:33:28;;;;;;;20.40;19.10;;;;;;;-141.02;100.00;55844.97;5136001;27;20240;-84
2022/07/22 08:35:55;;;;;;;20.70;19.40;;;;;;;-141.02;100.00;55844.97;5136111;27;20608;-84
2022/07/22 08:38:22;;;;;;;20.42;19.13;;;;;;;-141.02;100.00;55844.97;5136401;27;20196;-85
2022/07/22 08:40:50;;;;;;;20.92;19.63;;;;;;;-141.02;100.00;55844.97;5135463;27;20307;-85
2022/07/22 08:43:17;;;;;;;21.73;20.33;;;;;;;-141.02;100.00;55844.97;5135495;27;20270;-86
2022/07/22 08:45:44;;;;;;;20.20;18.90;;;;;;;-141.02;100.00;55844.97;5135601;27;20231;-84
2022/07/22 08:48:13;;;;;;;20.17;18.88;;;;;;;-141.02;47.71;80226.97;5135764;27;20629;-86
2022/07/22 08:50:40;;;;;;;20.13;18.85;;;;;;;-141.02;100.00;55844.97;5135212;27;20236;-86
2022/07/22 08:53:10;;;;;;;20.38;19.08;;;;;;;-141.02;100.00;55844.97;5135779;27;20193;-88
2022/07/22 08:55:41;;;;;;;20.40;19.10;;;;;;;-141.02;100.00;55844.97;5135138;27;20199;-83
2022/07/22 08:58:08;;;;;;;20.40;19.10;;;;;;;-141.02;100.00;55844.97;5135491;27;20293;-83
2022/07/22 09:00:36;;;;;;;20.45;19.15;;;;;;;-141.02;100.00;55844.97;5134821;27;20659;-86
2022/07/22 09:03:21;;;;;;;20.67;19.38;;;;;;;-141.02;100.00;55844.97;5136566;27;20594;-85
2022/07/22 09:05:49;;;;;;;20.65;19.35;;;;;;;-141.02;100.00;55844.97;5135467;27;20222;-85
2022/07/22 09:08:16;;;;;;;20.60;19.30;;;;;;;-141.02;100.00;55844.97;5135240;27;20243;-83
2022/07/22 09:10:44;;;;;;;20.73;19.42;;;;;;;-141.02;100.00;55844.97;5135060;27;20199;-83
2022/07/22 09:13:11;;;;;;;20.35;19.05;;;;;;;-141.02;100.00;55844.97;5133856;27;20204;-84
2022/07/22 09:15:46;;;;;;;20.52;19.23;;;;;;;-141.02;100.00;55844.97;5135401;27;20196;-84
2022/07/22 09:18:13;;;;;;;21.17;19.77;;;;;;;-141.02;100.00;55844.97;5134845;27;20183;-85
2022/07/22 09:20:43;;;;;;;20.88;19.48;;;;;;;-141.02;100.00;55844.97;5133862;27;20279;-83
2022/07/22 09:23:12;;;;;;;20.55;19.25;;;;;;;-141.02;100.00;55844.97;5135022;27;20224;-85
2022/07/22 09:25:40;;;;;;;21.70;20.30;;;;;;;-141.02;100.00;55844.97;5134508;27;20199;-84
2022/07/22 09:28:14;;;;;;;20.95;19.55;;;;;;;-141.02;100.00;55844.97;5135450;27;20196;-82
2022/07/22 09:30:47;;;;;;;21.17;19.83;;;;;;;-141.02;43.98;79854.31;5134703;27;20208;-82
2022/07/22 09:33:15;;;;;;;21.50;20.10;;;;;;;-141.02;43.41;79780.56;5134665;27;20661;-84
2022/07/22 09:35:45;;;;;;;21.33;19.92;;;;;;;-141.02;43.66;79865.97;5134558;27;20192;-83
2022/07/22 09:38:13;;;;;;;21.08;19.67;;;;;;;-141.02;43.59;79840.72;5134210;27;20254;-82
2022/07/22 09:40:42;;;;;;;21.55;20.15;;;;;;;-141.02;43.99;79788.31;5134128;27;20602;-82
2022/07/22 09:43:12;;;;;;;21.75;20.35;;;;;;;-94.73;100.00;79945.16;5134811;27;20311;-82
2022/07/22 09:45:47;;;;;;;21.60;20.20;;;;;;;-141.02;43.89;79864.00;5135129;27;20185;-79
2022/07/22 09:48:14;;;;;;;21.25;19.85;;;;;;;-141.02;44.66;79931.94;5134592;27;20665;-82
2022/07/22 09:50:43;;;;;;;21.55;20.15;;;;;;;-141.02;44.29;79939.72;5134902;27;20283;-84
2022/07/22 09:53:10;;;;;;;21.23;19.83;;;;;;;-141.02;43.77;79807.72;5134280;27;20248;-81
2022/07/22 09:55:39;;;;;;;21.58;20.17;;;;;;;-94.73;43.80;79788.31;5134593;27;20654;-84
2022/07/22 09:58:08;;;;;;;21.85;20.45;;;;;;;-141.02;43.19;79753.41;5134485;27;20279;-82
2022/07/22 10:00:37;;;;;;;24.15;22.35;;;;;;;-141.02;43.39;79768.91;5134048;27;20195;-84
2022/07/22 10:03:06;;;;;;;21.40;20.00;;;;;;;-141.02;43.72;80308.47;5134532;27;20223;-81
2022/07/22 10:05:35;;;;;;;20.75;19.35;;;;;;;-141.02;44.40;79871.78;5134021;27;20192;-77
2022/07/22 10:08:06;;;;;;;20.67;19.27;;;;;;;-141.02;44.28;79838.78;5134454;27;20214;-81
2022/07/22 10:10:34;;;;;;;20.80;19.40;;;;;;;-141.02;43.81;79761.16;5134193;27;20181;-83
2022/07/22 10:13:03;;;;;;;21.23;19.83;;;;;;;-141.02;43.94;79838.78;5134675;27;20256;-82
2022/07/22 10:15:31;;;;;;;21.27;19.88;;;;;;;-141.02;44.19;79854.31;5133628;27;20193;-79
2022/07/22 10:18:01;;;;;;;20.70;19.30;;;;;;;-141.02;44.96;79930.00;5134516;27;20192;-84
2022/07/22 10:20:30;;;;;;;20.95;19.65;;;;;;;-141.02;43.95;79827.13;5134548;27;20227;-83
2022/07/22 10:22:59;;;;;;;21.30;19.90;;;;;;;-141.02;44.84;79897.00;5134152;27;20268;-83
2022/07/22 10:25:29;;;;;;;20.98;19.58;;;;;;;-141.02;43.95;79860.13;5133973;27;20215;-83
2022/07/22 10:27:59;;;;;;;21.42;20.02;;;;;;;-141.02;44.29;79865.97;5133749;27;20241;-83
2022/07/22 10:30:28;;;;;;;21.60;20.20;;;;;;;-141.02;44.08;79897.00;5135081;27;20200;-83
2022/07/22 10:33:06;;;;;;;20.52;19.17;;;;;;;-141.02;44.07;80772.41;5133628;27;20554;-80
2022/07/22 10:35:35;;;;;;;21.15;19.75;;;;;;;-141.02;43.10;79819.38;5133707;27;20203;-80
2022/07/22 10:38:05;;;;;;;21.60;20.20;;;;;;;-141.02;43.23;79854.31;5132976;27;20253;-83
2022/07/22 10:40:48;;;;;;;21.67;20.27;;;;;;;-141.02;43.20;79834.91;5133562;27;20228;-82
2022/07/22 10:43:16;;;;;;;21.58;20.17;;;;;;;-141.02;43.83;79904.78;5133196;27;20212;-84
2022/07/22 10:45:47;;;;;;;20.60;19.30;;;;;;;-141.02;43.80;79918.34;5133713;28;20239;-79
2022/07/22 10:48:16;;;;;;;20.90;19.60;;;;;;;-141.02;42.98;79788.31;5133617;28;20200;-81
2022/07/22 10:50:46;;;;;;;21.20;19.85;;;;;;;-141.02;44.03;79900.88;5134047;28;20593;-86
2022/07/22 10:53:16;;;;;;;21.05;19.75;;;;;;;-141.02;44.25;79951.34;5133399;27;20193;-79
2022/07/22 10:56:06;;;;;;;21.55;20.15;;;;;;;-141.02;43.79;79846.56;5133784;27;20669;-81
2022/07/22 10:58:53;;;;;;;22.25;20.85;;;;;;;-141.02;43.07;79796.09;5133057;28;20223;-81